Amanda Park, WA

9:47 PM PDT on October 21, 2014 (GMT -0700)
Moclips | Change Station
CLOSE
Current Station
Personal Weather Station
Location: Moclips, WA
Elevation: 52 ft
Nearby Weather Stations
Active Advisory: Areal Flood Watch, Wind Advisory

Elev 52 ft 47.24 °N, 124.21 °W | Updated 8 seconds ago

Rain
Rain
55.8 °F
Feels Like 55.8 °F
N
11.0
Wind Variable Wind from ESE
Gusts 22.0 mph

Today
High -- | Low -- °F
--% Chance of Precip.
Yesterday
High -- | Low -- °F
Precip. -- in
7:43 AM 6:17 PM
Waning Crescent, 3% visible
Pressure 29.74 in
Visibility 2.5 miles
Clouds Few 1200 ft
Mostly Cloudy 1900 ft
Overcast 2700 ft
Dew Point 55 °F
Humidity 97%
Rainfall 0.99 in
Snow Depth Not available.
UV 0.0 out of 12
Pollen .40 out of 12
PM2.5 Good
Flu Activity Sporadic
SPECI KHQM 220441Z AUTO 10016KT 2 1/2SM -RA BR FEW012 BKN019 OVC027 13/13 A2974

More Conditions Fewer Conditions

Pressure 29.74 in
Visibility 2.5 miles
Clouds Few 1200 ft
Mostly Cloudy 1900 ft
Overcast 2700 ft
Dew Point 55 °F
Humidity 97%
Rainfall 0.99 in
Snow Depth Not available.
UV 0.0 out of 12
Pollen .40 out of 12
PM2.5 Good
Flu Activity Sporadic
SPECI KHQM 220441Z AUTO 10016KT 2 1/2SM -RA BR FEW012 BKN019 OVC027 13/13 A2974

More Conditions Fewer Conditions

10-Day Weather Forecast

Almanac

Astronomy

Oct. 21, 2014 Rise Set
Actual Time 7:43 AM PDT 6:17 PM PDT
Civil Twilight 7:12 AM PDT 6:48 PM PDT
Nautical Twilight 6:36 AM PDT 7:23 PM PDT
Astronomical Twilight 6:00 AM PDT 7:59 PM PDT
Moon 5:24 AM PDT (10/21) 5:20 PM PDT (10/21)
Length of Visible Light 11h 36m
Length of Day
10h 33m
Tomorrow will be 3m 15s shorter.
Waning Crescent, 3% of the Moon is Illuminated
Oct 22
Waning Crescent
Oct 23
New
Oct 30
First Quarter
Nov 6
Full
Nov 14
Last Quarter

Yesterday's Extremes

State Highs State Lows

Community

WunderPhotos

Upload Photos

1,763,882 photos uploaded!

Nearby

Air Quality

  Air Quality AQ Index Pollutant
Yesterday Good
PM2.5
Current Good
PM2.5

Snow Depth

Station Depth Elevation
Dungeness 0 in 4100 ft
Alpine Meadows 0 in 3500 ft
Skookum Creek 0 in 3920 ft
Mount Gardner 0 in 3000 ft
Huckleberry Creek 0 in 2000 ft

Earthquake Activity

City Distance Mag. Time & Date
No recent earthquake activity has been reported nearby.
Minimum magnitude displayed is 2.5.

Coastal Water Temperatures

Place Temperature
Westport, WA 60.1 °F
Astoria, OR 62.1 °F
La Push, WA 54.0 °F

Nearby Weather Stations